Time;durP1;ratioP1;P1;durP2;ratioP2;P2;SDS_P1;SDS_P2;PMS_P1;PMS_P2;Temp;Humidity;BMP_temperature;BMP_pressure;BME280_temperature;BME280_humidity;BME280_pressure;Samples;Min_cycle;Max_cycle;Signal;HPM_P1;HPM_P2
2022/07/26 00:01:23;;;;;;;12.80;11.63;;;;;;;20.96;58.10;94636.31;5134782;27;20098;-75
2022/07/26 00:03:49;;;;;;;12.75;11.30;;;;;;;20.91;57.79;94619.41;5151720;27;20023;-75
2022/07/26 00:06:14;;;;;;;13.02;11.73;;;;;;;20.94;58.45;94633.03;5151824;27;20035;-75
2022/07/26 00:08:40;;;;;;;12.82;11.55;;;;;;;20.86;58.69;94622.63;5151759;27;20019;-75
2022/07/26 00:11:05;;;;;;;13.25;11.98;;;;;;;20.81;58.56;94625.06;5134338;27;20035;-75
2022/07/26 00:13:31;;;;;;;13.15;11.85;;;;;;;20.77;58.63;94605.34;5134414;27;20230;-75
2022/07/26 00:15:56;;;;;;;13.18;11.90;;;;;;;20.85;58.43;94625.50;5151605;27;20064;-75
2022/07/26 00:18:22;;;;;;;12.18;10.98;;;;;;;20.90;58.36;94628.38;5134437;27;20471;-75
2022/07/26 00:20:47;;;;;;;12.32;11.10;;;;;;;20.91;58.52;94628.16;5151467;27;20394;-75
2022/07/26 00:23:13;;;;;;;12.45;11.27;;;;;;;20.90;57.97;94623.91;5152823;27;20416;-75
2022/07/26 00:25:39;;;;;;;12.65;11.23;;;;;;;20.92;57.99;94629.81;5134131;27;20034;-75
2022/07/26 00:28:04;;;;;;;12.30;10.77;;;;;;;20.90;58.00;94613.34;5134354;27;20037;-77
2022/07/26 00:30:30;;;;;;;13.63;11.05;;;;;;;21.04;57.63;94626.59;5134138;27;20023;-75
2022/07/26 00:32:55;;;;;;;11.95;10.82;;;;;;;21.04;57.49;94629.25;5151503;27;20484;-75
2022/07/26 00:35:21;;;;;;;13.98;11.60;;;;;;;21.09;57.50;94626.81;5151324;27;20060;-75
2022/07/26 00:37:46;;;;;;;12.00;10.90;;;;;;;21.04;57.76;94619.50;5117221;27;20052;-75
2022/07/26 00:40:12;;;;;;;12.38;11.18;;;;;;;21.05;57.49;94610.56;5133925;27;20026;-75
2022/07/26 00:42:37;;;;;;;12.50;11.20;;;;;;;21.15;57.31;94620.75;5151284;27;20038;-75
2022/07/26 00:45:04;;;;;;;12.15;11.05;;;;;;;21.14;57.26;94624.41;5117062;27;20052;-75
2022/07/26 00:47:30;;;;;;;12.60;11.18;;;;;;;21.12;57.46;94618.53;5150755;27;20170;-75
2022/07/26 00:49:56;;;;;;;12.10;10.90;;;;;;;21.14;57.26;94619.13;5150709;27;20468;-76
2022/07/26 00:52:21;;;;;;;12.68;10.98;;;;;;;21.06;57.54;94608.72;5134155;27;20035;-75
2022/07/26 00:54:47;;;;;;;12.23;11.10;;;;;;;21.00;57.99;94602.41;5151151;27;20083;-75
2022/07/26 00:57:12;;;;;;;12.65;11.38;;;;;;;21.08;57.78;94618.06;5143526;27;20027;-75
2022/07/26 00:59:38;;;;;;;12.40;11.20;;;;;;;21.06;58.06;94620.13;5096055;28;20035;-75
2022/07/26 01:02:04;;;;;;;13.02;11.82;;;;;;;20.94;58.19;94609.28;5130405;28;20511;-75
2022/07/26 01:04:30;;;;;;;12.25;11.05;;;;;;;20.96;58.37;94617.81;5130284;28;20047;-75
2022/07/26 01:06:55;;;;;;;12.68;11.48;;;;;;;20.93;58.61;94620.06;5132020;27;20055;-75
2022/07/26 01:09:21;;;;;;;12.88;11.57;;;;;;;20.87;58.77;94619.00;5096217;28;20027;-75
2022/07/26 01:11:46;;;;;;;13.23;11.68;;;;;;;20.85;58.83;94614.94;5113516;28;20417;-75
2022/07/26 01:14:12;;;;;;;12.27;11.10;;;;;;;20.80;59.12;94612.88;5131449;27;20481;-75
2022/07/26 01:16:37;;;;;;;12.23;11.00;;;;;;;20.76;59.20;94616.91;5130120;27;20095;-75
2022/07/26 01:19:02;;;;;;;12.50;11.25;;;;;;;20.74;59.37;94613.66;5130242;28;20087;-75
2022/07/26 01:21:29;;;;;;;12.93;11.35;;;;;;;20.76;59.33;94616.91;5130335;28;20039;-75
2022/07/26 01:23:54;;;;;;;13.77;11.65;;;;;;;20.70;59.57;94613.22;5113053;28;20027;-75
2022/07/26 01:26:20;;;;;;;13.25;12.00;;;;;;;20.68;59.52;94609.16;5130475;27;20459;-75
2022/07/26 01:28:48;;;;;;;13.43;11.63;;;;;;;20.63;59.66;94601.00;5129384;28;20034;-75
2022/07/26 01:31:13;;;;;;;12.98;11.80;;;;;;;20.69;59.36;94608.94;5131316;27;20100;-75
2022/07/26 01:33:39;;;;;;;12.82;11.45;;;;;;;20.63;59.69;94601.81;5112892;28;20424;-75
2022/07/26 01:36:05;;;;;;;12.40;11.18;;;;;;;20.61;59.93;94601.19;5112845;28;20043;-75
2022/07/26 01:38:30;;;;;;;12.98;11.77;;;;;;;20.63;60.03;94606.28;5112820;28;20023;-75
2022/07/26 01:40:55;;;;;;;12.23;11.02;;;;;;;20.63;60.10;94607.09;5131192;27;20027;-75
2022/07/26 01:43:21;;;;;;;13.18;11.82;;;;;;;20.56;60.24;94600.13;5112977;28;20440;-75
2022/07/26 01:45:46;;;;;;;12.35;11.18;;;;;;;20.53;60.67;94612.72;5113014;28;20408;-75
2022/07/26 01:48:12;;;;;;;13.07;11.80;;;;;;;20.45;60.54;94610.19;5130035;28;20019;-75
2022/07/26 01:50:37;;;;;;;12.98;11.68;;;;;;;20.41;61.06;94608.94;5129722;27;20072;-75
2022/07/26 01:53:03;;;;;;;14.20;11.60;;;;;;;20.34;61.04;94608.09;5132943;27;20068;-75
2022/07/26 01:55:28;;;;;;;13.13;11.93;;;;;;;20.38;61.00;94611.97;5133587;27;20042;-75
2022/07/26 01:57:54;;;;;;;12.77;11.48;;;;;;;20.27;61.39;94601.94;5147237;27;20026;-75
2022/07/26 02:00:19;;;;;;;12.93;11.63;;;;;;;20.29;61.30;94610.47;5136931;27;20046;-75
2022/07/26 02:02:45;;;;;;;12.80;11.57;;;;;;;20.30;61.43;94612.91;5137018;27;20031;-75
2022/07/26 02:05:11;;;;;;;13.20;11.90;;;;;;;20.31;61.28;94614.56;5136615;27;20041;-75
2022/07/26 02:07:41;;;;;;;12.73;11.50;;;;;;;20.30;61.16;94609.47;5155290;27;20034;-75
2022/07/26 02:10:08;;;;;;;13.63;11.85;;;;;;;20.33;61.06;94621.47;5153964;27;20071;-75
2022/07/26 02:12:33;;;;;;;14.15;11.60;;;;;;;20.20;61.30;94617.72;5153957;27;20038;-75
2022/07/26 02:14:59;;;;;;;15.18;11.80;;;;;;;20.22;61.49;94620.16;5153939;27;20023;-75
2022/07/26 02:17:24;;;;;;;12.63;11.32;;;;;;;20.14;61.74;94621.09;5136922;27;20434;-75
2022/07/26 02:19:51;;;;;;;12.77;11.45;;;;;;;20.09;61.75;94616.41;5153908;27;20109;-74
2022/07/26 02:22:17;;;;;;;13.07;11.88;;;;;;;20.12;61.66;94619.69;5154070;27;20444;-75
2022/07/26 02:24:43;;;;;;;12.77;11.57;;;;;;;20.05;62.08;94628.34;5153659;27;20031;-75
2022/07/26 02:27:08;;;;;;;13.45;12.15;;;;;;;20.02;62.12;94631.34;5136734;27;20034;-75
2022/07/26 02:29:34;;;;;;;12.32;11.13;;;;;;;19.96;61.98;94621.56;5154862;27;20460;-74
2022/07/26 02:31:59;;;;;;;13.05;11.75;;;;;;;19.97;62.12;94619.75;5153805;27;20081;-75
2022/07/26 02:34:25;;;;;;;12.90;11.70;;;;;;;19.98;61.97;94618.75;5119150;27;20480;-75
2022/07/26 02:36:50;;;;;;;14.18;12.77;;;;;;;19.99;61.87;94615.09;5153720;27;20103;-75
2022/07/26 02:39:16;;;;;;;12.43;11.13;;;;;;;20.01;61.80;94621.00;5152647;27;20079;-75
2022/07/26 02:41:41;;;;;;;14.00;11.85;;;;;;;19.88;62.19;94626.97;5136322;27;20042;-75
2022/07/26 02:44:07;;;;;;;13.45;12.15;;;;;;;19.88;62.27;94629.59;5153422;27;20029;-75
2022/07/26 02:46:33;;;;;;;12.43;11.25;;;;;;;19.94;62.00;94623.56;5136216;27;20117;-75
2022/07/26 02:48:59;;;;;;;12.88;11.63;;;;;;;19.88;62.05;94623.53;5136197;27;20101;-75
2022/07/26 02:51:25;;;;;;;13.02;11.80;;;;;;;19.88;62.06;94626.16;5153448;27;20485;-75
2022/07/26 02:53:50;;;;;;;13.15;11.90;;;;;;;19.89;62.08;94614.59;5136033;27;20041;-75
2022/07/26 02:56:16;;;;;;;12.68;11.35;;;;;;;19.89;61.84;94617.25;5153287;27;20031;-75
2022/07/26 02:58:41;;;;;;;13.15;11.75;;;;;;;19.91;61.94;94623.94;5132417;27;20037;-75
2022/07/26 03:01:07;;;;;;;12.80;11.50;;;;;;;19.86;62.09;94621.91;5133746;27;20047;-75
2022/07/26 03:03:32;;;;;;;13.00;11.70;;;;;;;19.84;62.14;94628.38;5114028;27;20041;-75
2022/07/26 03:05:58;;;;;;;13.90;12.05;;;;;;;19.80;62.12;94617.38;5132169;27;20035;-75
2022/07/26 03:08:23;;;;;;;12.50;11.10;;;;;;;19.72;62.06;94603.50;5133479;27;20020;-75
2022/07/26 03:10:49;;;;;;;13.65;11.45;;;;;;;19.83;62.33;94630.16;5132130;27;20046;-75
2022/07/26 03:13:14;;;;;;;14.13;11.57;;;;;;;19.77;62.44;94622.19;5132195;27;20030;-75
2022/07/26 03:15:40;;;;;;;13.00;11.80;;;;;;;19.72;62.54;94624.56;5114916;27;20046;-75
2022/07/26 03:18:05;;;;;;;12.30;11.10;;;;;;;19.78;62.52;94627.28;5115021;27;20054;-75
2022/07/26 03:20:31;;;;;;;12.32;11.13;;;;;;;19.76;62.72;94639.03;5131885;27;20035;-75
2022/07/26 03:22:56;;;;;;;14.30;12.48;;;;;;;19.61;63.27;94634.59;5114867;27;20031;-75
2022/07/26 03:25:21;;;;;;;13.63;12.32;;;;;;;19.42;63.90;94636.00;5132959;27;20031;-75
2022/07/26 03:27:47;;;;;;;13.05;11.65;;;;;;;19.25;64.59;94654.81;5097693;27;20072;-75
2022/07/26 03:30:13;;;;;;;13.20;11.93;;;;;;;19.20;64.78;94650.13;5114509;27;20428;-75
2022/07/26 03:32:38;;;;;;;13.75;12.35;;;;;;;19.25;64.89;94649.56;5132926;27;20027;-75
2022/07/26 03:35:04;;;;;;;14.57;11.82;;;;;;;19.24;65.01;94659.28;5131683;27;20027;-75
2022/07/26 03:37:30;;;;;;;14.48;11.95;;;;;;;19.17;65.14;94648.69;5133382;27;20039;-75
2022/07/26 03:39:55;;;;;;;15.60;12.38;;;;;;;19.17;65.23;94653.94;5131600;27;20400;-75
2022/07/26 03:42:21;;;;;;;15.55;10.95;;;;;;;19.25;65.08;94649.56;5131759;27;20069;-75
2022/07/26 03:44:46;;;;;;;12.75;11.43;;;;;;;19.31;64.87;94647.03;5114153;27;20023;-75
2022/07/26 03:47:12;;;;;;;12.27;10.98;;;;;;;19.28;65.08;94644.75;5114584;27;20050;-75
2022/07/26 03:49:37;;;;;;;12.93;11.48;;;;;;;19.26;65.21;94651.22;5132556;27;20421;-75
2022/07/26 03:52:03;;;;;;;11.68;10.57;;;;;;;19.30;65.31;94645.38;5131550;27;20042;-75
2022/07/26 03:54:28;;;;;;;12.63;11.43;;;;;;;19.28;65.34;94628.97;5131263;27;20123;-75
2022/07/26 03:56:54;;;;;;;12.38;11.18;;;;;;;19.25;65.68;94637.22;5136648;27;20031;-75
2022/07/26 03:59:19;;;;;;;12.30;11.20;;;;;;;19.40;65.08;94643.28;5151781;27;20444;-75
2022/07/26 04:01:45;;;;;;;13.13;11.57;;;;;;;19.57;64.55;94646.50;5153449;27;20087;-75
2022/07/26 04:04:12;;;;;;;12.68;11.43;;;;;;;19.45;64.16;94619.03;5151865;27;20031;-75
2022/07/26 04:06:38;;;;;;;11.98;10.88;;;;;;;19.71;63.58;94642.22;5117721;27;20500;-75
2022/07/26 04:09:04;;;;;;;12.48;11.18;;;;;;;19.76;63.23;94631.13;5151761;27;20109;-75
2022/07/26 04:11:29;;;;;;;11.93;10.77;;;;;;;19.89;62.92;94635.69;5117395;27;20062;-75
2022/07/26 04:13:55;;;;;;;11.98;10.88;;;;;;;20.00;62.54;94638.66;5151611;27;20030;-75
2022/07/26 04:16:21;;;;;;;13.07;11.07;;;;;;;20.21;61.70;94629.91;5133833;27;20083;-75
2022/07/26 04:18:46;;;;;;;12.05;10.93;;;;;;;21.05;59.12;94636.97;5119983;27;20038;-75
2022/07/26 04:21:12;;;;;;;11.93;10.73;;;;;;;22.84;53.66;94625.84;5130332;27;20096;-75
2022/07/26 04:23:37;;;;;;;12.30;11.00;;;;;;;24.25;49.66;94618.91;5130218;27;20038;-75
2022/07/26 04:26:02;;;;;;;11.30;10.20;;;;;;;25.83;45.58;94615.63;5130679;27;20035;-75
2022/07/26 04:28:28;;;;;;;11.30;10.23;;;;;;;27.17;42.01;94614.28;5096691;27;20027;-75
2022/07/26 04:30:54;;;;;;;11.63;10.52;;;;;;;28.18;39.93;94613.78;5130537;27;20038;-75
2022/07/26 04:33:20;;;;;;;11.25;10.25;;;;;;;28.25;39.45;94617.91;5130814;27;20058;-75
2022/07/26 04:35:45;;;;;;;11.25;10.25;;;;;;;29.13;37.57;94607.50;5135986;27;20034;-75
2022/07/26 04:38:11;;;;;;;11.23;10.20;;;;;;;29.82;36.13;94620.41;5116959;27;20027;-75
2022/07/26 04:40:37;;;;;;;11.55;10.45;;;;;;;30.07;36.02;94611.00;5151299;27;20030;-76
2022/07/26 04:43:02;;;;;;;11.00;9.95;;;;;;;30.81;34.51;94604.94;5151546;27;20018;-75
2022/07/26 04:45:28;;;;;;;10.80;9.75;;;;;;;31.27;33.17;94601.72;5133228;27;20043;-75
2022/07/26 04:47:53;;;;;;;11.30;9.45;;;;;;;31.68;33.04;94609.91;5110044;27;20028;-75
2022/07/26 04:50:19;;;;;;;9.63;8.65;;;;;;;31.49;33.44;94607.72;5115452;28;20481;-75
2022/07/26 04:52:45;;;;;;;11.48;10.50;;;;;;;32.24;32.12;94610.09;5096461;28;20031;-75
2022/07/26 04:55:11;;;;;;;10.57;9.55;;;;;;;32.09;31.99;94607.38;5128059;28;20056;-75
2022/07/26 04:57:36;;;;;;;10.88;9.80;;;;;;;32.05;32.27;94612.47;5113153;28;20044;-75
2022/07/26 05:00:06;;;;;;;10.57;9.52;;;;;;;31.90;32.65;94613.22;5126595;28;20050;-75
2022/07/26 05:02:31;;;;;;;;;;;;;;;30.46;35.26;94614.31;5112004;28;20489;-75
2022/07/26 05:04:57;;;;;;;11.83;10.17;;;;;;;29.17;37.38;94602.50;5092762;28;19930;-75
2022/07/26 05:07:22;;;;;;;11.15;10.15;;;;;;;28.40;39.53;94608.53;5128775;28;20293;-75
2022/07/26 05:09:47;;;;;;;10.93;9.90;;;;;;;27.75;41.03;94602.59;5125131;28;20030;-75
2022/07/26 05:12:13;;;;;;;11.10;10.00;;;;;;;27.35;42.12;94606.09;5127657;28;20031;-76
2022/07/26 05:14:38;;;;;;;12.98;10.30;;;;;;;26.99;42.69;94617.84;5110264;28;20473;-75
2022/07/26 05:17:04;;;;;;;14.18;11.00;;;;;;;26.65;43.64;94614.97;5108729;28;20421;-75
2022/07/26 05:19:30;;;;;;;10.90;9.80;;;;;;;26.13;45.00;94613.94;5128906;27;20023;-75
2022/07/26 05:21:55;;;;;;;11.93;10.77;;;;;;;26.17;45.12;94604.50;5111973;28;20054;-75
2022/07/26 05:24:21;;;;;;;13.35;11.32;;;;;;;25.89;45.66;94600.59;5108388;28;20039;-75
2022/07/26 05:26:46;;;;;;;16.63;11.77;;;;;;;25.55;46.38;94599.41;5112608;27;20034;-75
2022/07/26 05:29:12;;;;;;;18.25;12.30;;;;;;;25.31;47.09;94599.28;5132836;27;20030;-75
2022/07/26 05:31:37;;;;;;;14.32;12.15;;;;;;;25.52;47.23;94606.00;5131536;27;20107;-75
2022/07/26 05:34:03;;;;;;;17.33;12.25;;;;;;;25.64;46.86;94603.38;5133141;27;20034;-75
2022/07/26 05:36:28;;;;;;;17.33;12.35;;;;;;;25.78;46.32;94602.16;5132951;27;20027;-75
2022/07/26 05:38:54;;;;;;;14.65;12.05;;;;;;;25.66;46.67;94601.31;5128852;27;20115;-76
2022/07/26 05:41:20;;;;;;;13.98;11.63;;;;;;;25.77;47.04;94607.69;5115336;27;20084;-75
2022/07/26 05:43:45;;;;;;;14.70;12.40;;;;;;;25.60;47.21;94611.00;5131091;27;20425;-76
2022/07/26 05:46:11;;;;;;;13.63;11.93;;;;;;;25.30;47.92;94603.00;5128416;27;20054;-75
2022/07/26 05:48:39;;;;;;;12.93;11.55;;;;;;;25.47;47.85;94607.72;5125719;27;20053;-76
2022/07/26 05:51:05;;;;;;;13.18;11.45;;;;;;;25.59;47.45;94600.56;5115861;27;20036;-76
2022/07/26 05:53:31;;;;;;;20.92;11.82;;;;;;;25.69;47.47;94584.91;5126398;27;20028;-77
2022/07/26 05:55:57;;;;;;;14.23;12.00;;;;;;;25.79;47.36;94605.63;5117457;27;20038;-80
2022/07/26 05:58:22;;;;;;;13.75;12.23;;;;;;;25.65;47.61;94599.66;5125269;27;20019;-75
2022/07/26 06:00:48;;;;;;;13.23;11.07;;;;;;;25.70;47.38;94591.03;5114139;27;20094;-79
2022/07/26 06:03:22;;;;;;;12.75;11.45;;;;;;;25.79;46.90;94590.47;5125398;27;20039;-76
2022/07/26 06:05:55;;;;;;;15.80;11.20;;;;;;;25.79;46.88;94589.66;5130479;27;20098;-76
2022/07/26 06:08:21;;;;;;;12.70;11.23;;;;;;;25.79;47.05;94590.47;5130465;27;20405;-76
2022/07/26 06:10:47;;;;;;;14.63;10.73;;;;;;;25.87;46.92;94583.25;5127999;27;20036;-78
2022/07/26 06:13:12;;;;;;;13.20;11.60;;;;;;;25.95;47.26;94588.25;5127260;27;20095;-78
2022/07/26 06:15:38;;;;;;;14.82;11.20;;;;;;;26.05;46.33;94577.84;5131141;27;20035;-76
2022/07/26 06:18:04;;;;;;;12.75;11.23;;;;;;;26.06;46.46;94584.78;5107084;27;20031;-76
2022/07/26 06:20:30;;;;;;;14.75;11.60;;;;;;;26.04;46.79;94568.22;5123881;27;20710;-76
2022/07/26 06:22:57;;;;;;;13.70;12.02;;;;;;;26.06;46.17;94564.31;5127526;27;20048;-76
2022/07/26 06:25:23;;;;;;;17.85;12.38;;;;;;;26.32;45.86;94572.09;5104052;27;20038;-75
2022/07/26 06:27:48;;;;;;;15.00;11.68;;;;;;;26.24;45.73;94552.78;5124412;27;20023;-76
2022/07/26 06:30:14;;;;;;;19.70;13.02;;;;;;;26.22;46.19;94564.69;5114750;27;20035;-75
2022/07/26 06:32:43;;;;;;;12.60;11.40;;;;;;;26.39;46.32;94575.47;5124927;27;20038;-75
2022/07/26 06:35:11;;;;;;;15.95;11.15;;;;;;;26.52;45.92;94567.25;5097452;28;20122;-76
2022/07/26 06:37:37;;;;;;;12.48;11.10;;;;;;;26.67;45.92;94567.59;5122793;27;20092;-75
2022/07/26 06:40:04;;;;;;;14.82;11.48;;;;;;;26.69;44.96;94544.22;5119156;27;20470;-76
2022/07/26 06:42:29;;;;;;;14.73;11.70;;;;;;;26.91;45.42;94562.25;5106978;27;20493;-76
2022/07/26 06:44:55;;;;;;;12.85;11.55;;;;;;;27.00;44.55;94554.72;5130707;27;20019;-76
2022/07/26 06:47:20;;;;;;;15.90;12.18;;;;;;;27.23;44.00;94561.88;5140484;27;20023;-76
2022/07/26 06:49:45;;;;;;;15.63;12.73;;;;;;;27.42;43.90;94565.16;5119972;27;20032;-75
2022/07/26 06:52:11;;;;;;;21.10;12.60;;;;;;;27.33;44.16;94546.88;5104860;27;20046;-76
2022/07/26 06:54:36;;;;;;;14.50;12.98;;;;;;;27.33;43.34;94562.88;5137276;27;20019;-76
2022/07/26 06:57:02;;;;;;;14.93;12.52;;;;;;;27.40;43.58;94562.72;5100031;27;20055;-76
2022/07/26 06:59:28;;;;;;;16.95;13.60;;;;;;;27.34;43.97;94558.34;5130470;27;20473;-76
2022/07/26 07:01:53;;;;;;;18.15;13.40;;;;;;;27.39;44.26;94561.94;5109533;27;20397;-76
2022/07/26 07:04:18;;;;;;;16.52;12.38;;;;;;;27.37;43.96;94555.22;5109583;27;20024;-78
2022/07/26 07:06:44;;;;;;;15.52;13.23;;;;;;;27.53;43.21;94554.44;5092255;27;20066;-76
2022/07/26 07:09:09;;;;;;;16.13;13.05;;;;;;;27.52;43.57;94546.69;5110061;27;20508;-75
2022/07/26 07:11:35;;;;;;;19.83;13.15;;;;;;;27.56;43.16;94561.97;5112768;27;20089;-77
2022/07/26 07:14:02;;;;;;;14.88;13.20;;;;;;;27.59;43.23;94568.69;5127230;27;20034;-78
2022/07/26 07:16:27;;;;;;;14.40;12.85;;;;;;;27.56;43.75;94563.84;5096681;27;20450;-78
2022/07/26 07:18:53;;;;;;;14.68;12.38;;;;;;;27.77;42.88;94565.81;5107475;27;20066;-76
2022/07/26 07:21:18;;;;;;;15.25;12.55;;;;;;;27.83;42.92;94556.88;5117262;27;20049;-75
2022/07/26 07:23:44;;;;;;;16.25;11.77;;;;;;;28.00;42.81;94559.56;5119168;27;20076;-76
2022/07/26 07:26:09;;;;;;;15.05;12.15;;;;;;;28.17;42.58;94561.44;5112545;27;20390;-76
2022/07/26 07:28:37;;;;;;;17.30;11.90;;;;;;;28.18;42.20;94549.72;5133081;27;20028;-76
2022/07/26 07:31:03;;;;;;;13.32;11.65;;;;;;;28.35;42.37;94555.03;5131930;27;20063;-75
2022/07/26 07:33:29;;;;;;;13.27;11.68;;;;;;;28.43;42.40;94560.81;5130564;27;20107;-76
2022/07/26 07:35:54;;;;;;;13.20;11.85;;;;;;;28.45;40.90;94545.34;5130828;27;20110;-76
2022/07/26 07:38:20;;;;;;;16.83;12.23;;;;;;;28.34;41.16;94556.91;5129706;27;20031;-76
2022/07/26 07:40:45;;;;;;;13.75;11.82;;;;;;;28.34;42.20;94561.44;5129645;27;20039;-76
2022/07/26 07:43:11;;;;;;;15.88;12.02;;;;;;;28.52;41.21;94561.19;5129626;27;20027;-76
2022/07/26 07:45:36;;;;;;;13.10;11.80;;;;;;;28.54;41.21;94552.94;5129558;27;20039;-75
2022/07/26 07:48:02;;;;;;;12.18;10.98;;;;;;;28.40;42.02;94560.47;5130013;27;20543;-75
2022/07/26 07:50:27;;;;;;;14.68;12.00;;;;;;;28.47;41.70;94559.28;5113712;27;20456;-76
2022/07/26 07:52:53;;;;;;;13.90;12.68;;;;;;;28.28;41.29;94553.34;5097730;27;20074;-75
2022/07/26 07:55:18;;;;;;;14.10;12.07;;;;;;;28.36;42.23;94543.28;5114147;27;20042;-76
2022/07/26 07:57:44;;;;;;;14.32;12.95;;;;;;;28.25;40.96;94551.16;5097346;27;20285;-75
2022/07/26 08:00:11;;;;;;;17.63;12.95;;;;;;;28.16;41.41;94530.44;5114113;27;20517;-75
2022/07/26 08:02:36;;;;;;;14.02;11.98;;;;;;;28.49;42.27;94540.31;5097461;27;20059;-77
2022/07/26 08:05:03;;;;;;;14.95;11.93;;;;;;;28.67;41.60;94531.25;5113950;27;20469;-76
2022/07/26 08:07:29;;;;;;;13.13;11.75;;;;;;;28.88;41.04;94529.63;5131413;27;20031;-76
2022/07/26 08:09:56;;;;;;;12.95;11.75;;;;;;;29.14;39.84;94530.78;5132305;27;20030;-75
2022/07/26 08:12:21;;;;;;;13.73;12.32;;;;;;;29.32;39.30;94530.47;5097318;27;20032;-76
2022/07/26 08:14:46;;;;;;;13.68;12.20;;;;;;;29.39;39.83;94523.06;5131029;27;20053;-76
2022/07/26 08:17:12;;;;;;;13.63;12.20;;;;;;;29.57;40.12;94531.78;5097148;27;20038;-76
2022/07/26 08:19:37;;;;;;;13.32;11.85;;;;;;;29.74;39.67;94526.38;5130874;27;20507;-76
2022/07/26 08:22:03;;;;;;;16.88;11.88;;;;;;;29.84;39.02;94527.28;5131095;27;20404;-76
2022/07/26 08:24:28;;;;;;;13.75;12.30;;;;;;;29.92;39.01;94519.81;5130886;27;20038;-76
2022/07/26 08:26:54;;;;;;;13.27;11.90;;;;;;;30.02;39.37;94506.53;5113758;27;20031;-76
2022/07/26 08:29:19;;;;;;;12.50;11.30;;;;;;;30.21;38.79;94518.47;5130799;27;20038;-76
2022/07/26 08:31:45;;;;;;;13.02;11.82;;;;;;;30.34;38.34;94503.03;5130904;27;20084;-76
2022/07/26 08:34:10;;;;;;;12.35;11.15;;;;;;;30.43;37.84;94502.31;5130737;27;20043;-76
2022/07/26 08:36:36;;;;;;;13.93;12.05;;;;;;;30.50;37.69;94502.06;5130938;27;20035;-76
2022/07/26 08:39:01;;;;;;;12.55;11.35;;;;;;;30.51;36.21;94506.38;5096569;27;20023;-76
2022/07/26 08:41:27;;;;;;;12.95;11.82;;;;;;;30.55;36.85;94503.97;5096677;28;20038;-76
2022/07/26 08:43:52;;;;;;;12.27;11.07;;;;;;;30.59;36.51;94505.88;5131849;27;20055;-76
2022/07/26 08:46:22;;;;;;;12.85;11.55;;;;;;;30.59;35.70;94511.25;5113598;27;20062;-76
2022/07/26 08:48:47;;;;;;;12.63;11.32;;;;;;;30.57;36.99;94499.97;5096994;28;20051;-76
2022/07/26 08:51:12;;;;;;;12.18;11.07;;;;;;;30.69;36.56;94500.56;5113430;28;20039;-76
2022/07/26 08:53:38;;;;;;;12.85;11.50;;;;;;;30.61;36.60;94495.69;5113330;28;20031;-76
2022/07/26 08:56:04;;;;;;;12.85;11.32;;;;;;;30.73;36.28;94496.31;5113507;28;20035;-76
2022/07/26 08:58:33;;;;;;;11.93;10.73;;;;;;;30.79;33.98;94497.16;5096392;28;20506;-76
2022/07/26 09:01:06;;;;;;;11.73;10.23;;;;;;;30.87;34.04;94498.53;5130593;27;20187;-76
2022/07/26 09:03:31;;;;;;;10.43;9.43;;;;;;;30.90;31.48;94498.84;5134694;27;20404;-76
2022/07/26 09:06:09;;;;;;;9.75;8.85;;;;;;;30.94;31.74;94493.75;5135865;27;20042;-76
2022/07/26 09:08:36;;;;;;;10.85;9.77;;;;;;;31.07;31.73;94495.16;5135819;27;20023;-75
2022/07/26 09:11:01;;;;;;;10.77;9.73;;;;;;;31.12;32.77;94490.59;5134649;27;20122;-76
2022/07/26 09:13:49;;;;;;;11.60;10.45;;;;;;;31.27;33.36;94497.88;5117320;27;20027;-76
2022/07/26 09:16:14;;;;;;;12.15;10.80;;;;;;;31.26;33.16;94484.72;5102237;27;20039;-75
2022/07/26 09:18:39;;;;;;;11.63;10.50;;;;;;;31.36;33.11;94485.59;5134272;27;20019;-76
2022/07/26 09:21:05;;;;;;;13.50;10.13;;;;;;;31.52;33.81;94491.81;5117330;27;20035;-76
2022/07/26 09:23:40;;;;;;;12.35;10.68;;;;;;;31.41;33.00;94495.53;5135552;27;20027;-76
2022/07/26 09:26:05;;;;;;;11.90;10.27;;;;;;;31.50;33.22;94496.63;5134317;27;20035;-75
2022/07/26 09:28:31;;;;;;;11.52;10.25;;;;;;;31.44;32.18;94480.78;5134190;27;20028;-76
2022/07/26 09:31:03;;;;;;;12.27;11.05;;;;;;;31.53;32.68;94481.88;5134157;27;20038;-76
2022/07/26 09:33:46;;;;;;;12.35;10.77;;;;;;;31.59;32.28;94486.16;5134104;27;20498;-76
2022/07/26 09:36:11;;;;;;;11.02;9.95;;;;;;;31.63;32.62;94479.22;5117106;27;20107;-76
2022/07/26 09:38:48;;;;;;;11.82;10.50;;;;;;;31.72;32.30;94487.53;5116857;27;20035;-76
2022/07/26 09:41:20;;;;;;;11.07;10.07;;;;;;;31.69;32.39;94475.44;5100063;27;20087;-76
2022/07/26 09:43:46;;;;;;;13.18;10.93;;;;;;;31.68;31.87;94473.84;5116743;27;20525;-75
2022/07/26 09:46:12;;;;;;;11.45;10.38;;;;;;;31.82;30.36;94482.19;5116888;27;20031;-75
2022/07/26 09:48:38;;;;;;;11.13;10.13;;;;;;;31.87;31.62;94479.47;5133850;27;20409;-75
2022/07/26 09:51:07;;;;;;;11.43;10.32;;;;;;;32.01;31.70;94479.78;5116866;27;20038;-75
2022/07/26 09:53:43;;;;;;;11.80;10.80;;;;;;;32.20;31.53;94478.16;5116625;27;20496;-75
2022/07/26 09:56:09;;;;;;;11.80;10.60;;;;;;;32.19;31.71;94475.75;5116981;27;20058;-75
2022/07/26 09:58:35;;;;;;;12.10;11.07;;;;;;;32.03;29.60;94464.22;5116545;27;20488;-75
2022/07/26 10:01:01;;;;;;;14.23;11.30;;;;;;;32.15;30.83;94469.28;5099560;27;20409;-75
2022/07/26 10:03:28;;;;;;;19.60;11.43;;;;;;;32.08;30.45;94464.22;5134819;27;20136;-77
2022/07/26 10:05:54;;;;;;;13.52;11.85;;;;;;;31.92;30.04;94476.81;5133541;27;20065;-75
2022/07/26 10:08:19;;;;;;;12.07;11.00;;;;;;;31.84;30.29;94469.28;5133534;27;20023;-76
2022/07/26 10:10:46;;;;;;;14.15;10.55;;;;;;;31.95;30.83;94468.22;5133393;27;20035;-76
2022/07/26 10:13:12;;;;;;;12.93;11.55;;;;;;;32.08;31.10;94469.59;5115811;27;20113;-75
2022/07/26 10:15:42;;;;;;;12.32;11.13;;;;;;;32.18;30.51;94452.63;5133185;27;20039;-75
2022/07/26 10:18:09;;;;;;;12.20;10.32;;;;;;;32.28;30.39;94444.56;5099275;27;20027;-75
2022/07/26 10:20:44;;;;;;;13.95;11.50;;;;;;;32.23;29.66;94447.25;5115981;27;20110;-75
2022/07/26 10:23:32;;;;;;;12.20;10.90;;;;;;;32.36;30.13;94454.75;5134456;27;20405;-76
2022/07/26 10:25:58;;;;;;;13.05;11.07;;;;;;;32.24;30.18;94449.69;5115902;27;20475;-75
2022/07/26 10:28:25;;;;;;;13.25;11.35;;;;;;;32.26;30.28;94447.53;5116011;27;20058;-75
2022/07/26 10:30:51;;;;;;;12.77;11.57;;;;;;;32.45;30.88;94445.06;5116134;27;20053;-75
2022/07/26 10:33:17;;;;;;;12.23;11.10;;;;;;;32.53;30.36;94440.25;5134243;27;20023;-76
2022/07/26 10:35:42;;;;;;;13.65;11.27;;;;;;;32.49;29.25;94440.78;5115662;27;20049;-75
2022/07/26 10:38:12;;;;;;;12.43;11.23;;;;;;;32.43;29.21;94439.16;5134178;27;20032;-76
2022/07/26 10:40:54;;;;;;;13.18;11.48;;;;;;;32.48;30.80;94439.19;5134035;27;20028;-76
2022/07/26 10:43:19;;;;;;;12.57;11.23;;;;;;;32.53;29.02;94442.94;5133020;27;20185;-76
2022/07/26 10:45:45;;;;;;;13.50;11.35;;;;;;;32.50;28.77;94436.22;5115518;27;20538;-76
2022/07/26 10:48:14;;;;;;;12.95;11.60;;;;;;;32.50;29.54;94433.53;5115954;27;20035;-75
2022/07/26 10:50:41;;;;;;;13.13;11.90;;;;;;;32.53;29.90;94424.13;5115447;27;20027;-76
2022/07/26 10:53:07;;;;;;;13.23;12.02;;;;;;;32.61;28.33;94428.94;5115554;27;20065;-76
2022/07/26 10:55:44;;;;;;;13.65;11.90;;;;;;;32.50;29.06;94420.09;5132424;27;20038;-75
2022/07/26 10:58:09;;;;;;;12.85;11.70;;;;;;;32.41;28.43;94419.81;5115576;27;20050;-76
2022/07/26 11:00:34;;;;;;;13.50;12.30;;;;;;;32.40;28.77;94415.53;5097914;27;20051;-76
2022/07/26 11:03:00;;;;;;;13.52;12.20;;;;;;;32.48;29.37;94415.00;5098314;27;20034;-76
2022/07/26 11:05:30;;;;;;;13.73;12.45;;;;;;;32.54;29.34;94406.91;5115118;27;20031;-75
2022/07/26 11:08:27;;;;;;;14.07;11.88;;;;;;;32.62;28.35;94406.34;5132317;27;20408;-76
2022/07/26 11:10:53;;;;;;;15.15;11.60;;;;;;;32.49;28.51;94397.78;5114229;27;20043;-76
2022/07/26 11:13:19;;;;;;;13.57;12.02;;;;;;;32.48;27.99;94398.06;5133460;27;20053;-76